Time;durP1;ratioP1;P1;durP2;ratioP2;P2;SDS_P1;SDS_P2;PMS_P1;PMS_P2;Temp;Humidity;BMP_temperature;BMP_pressure;BME280_temperature;BME280_humidity;BME280_pressure;Samples;Min_cycle;Max_cycle;Signal;HPM_P1;HPM_P2
2022/11/30 00:01:23;;;;;;;28.02;12.75;;;;;;;4.63;93.84;101017.34;4928781;28;20043;-69
2022/11/30 00:03:55;;;;;;;26.80;12.82;;;;;;;4.70;93.95;101018.06;4920300;29;20045;-69
2022/11/30 00:06:24;;;;;;;21.60;12.10;;;;;;;4.72;93.50;101015.16;4921355;29;20066;-70
2022/11/30 00:08:56;;;;;;;25.83;12.55;;;;;;;4.80;93.62;101008.56;4933298;29;20051;-69
2022/11/30 00:11:26;;;;;;;24.13;12.50;;;;;;;4.97;93.04;101023.13;4928489;29;20499;-70
2022/11/30 00:13:54;;;;;;;25.98;12.80;;;;;;;5.03;92.61;101009.72;4927038;29;20052;-69
2022/11/30 00:16:22;;;;;;;22.00;11.88;;;;;;;5.08;92.34;101007.94;4921789;29;20053;-71
2022/11/30 00:18:50;;;;;;;25.00;13.23;;;;;;;5.16;92.51;101020.34;4919200;29;20063;-69
2022/11/30 00:21:18;;;;;;;25.42;12.85;;;;;;;5.15;91.79;101018.69;4926492;29;20062;-69
2022/11/30 00:23:47;;;;;;;24.75;12.15;;;;;;;5.15;93.00;101012.44;4921381;29;20052;-70
2022/11/30 00:26:18;;;;;;;21.05;12.45;;;;;;;5.30;91.14;101012.00;4918884;29;20432;-69
2022/11/30 00:28:46;;;;;;;18.60;11.82;;;;;;;5.28;91.36;101008.69;4920725;29;20072;-69
2022/11/30 00:31:16;;;;;;;24.30;12.20;;;;;;;5.35;91.56;101018.38;4917392;29;20066;-69
2022/11/30 00:33:44;;;;;;;23.88;12.30;;;;;;;5.34;91.71;101016.72;4919913;29;20051;-69
2022/11/30 00:36:16;;;;;;;24.40;13.20;;;;;;;5.25;92.29;101021.66;4931720;29;20039;-69
2022/11/30 00:38:44;;;;;;;23.02;13.50;;;;;;;5.21;91.37;101016.94;4919684;29;20059;-69
2022/11/30 00:41:13;;;;;;;20.15;12.25;;;;;;;5.22;91.51;101019.41;4918501;29;20044;-69
2022/11/30 00:43:41;;;;;;;21.70;12.90;;;;;;;5.22;91.56;101016.72;4924722;29;20051;-69
2022/11/30 00:46:09;;;;;;;22.02;13.07;;;;;;;5.20;92.22;101015.28;4928114;29;20051;-69
2022/11/30 00:48:38;;;;;;;26.08;12.65;;;;;;;5.20;91.76;101018.84;4934541;29;20056;-69
2022/11/30 00:51:08;;;;;;;21.95;13.15;;;;;;;5.25;92.04;101024.38;4935355;29;20051;-69
2022/11/30 00:53:37;;;;;;;20.77;11.82;;;;;;;5.30;92.38;101023.69;4935399;29;20055;-70
2022/11/30 00:56:06;;;;;;;22.52;13.95;;;;;;;5.25;91.94;101021.66;4934935;29;20043;-70
2022/11/30 00:58:34;;;;;;;22.90;13.10;;;;;;;5.25;92.02;101020.84;4936209;29;20411;-70
2022/11/30 01:01:02;;;;;;;24.88;13.68;;;;;;;5.29;92.00;101023.91;4927151;29;20048;-69
2022/11/30 01:03:30;;;;;;;22.02;13.10;;;;;;;5.37;91.75;101010.00;4918476;29;20044;-69
2022/11/30 01:06:03;;;;;;;25.00;14.23;;;;;;;5.33;92.11;101015.06;4935574;29;20055;-69
2022/11/30 01:08:31;;;;;;;21.80;13.20;;;;;;;5.37;91.65;101016.25;4920292;29;20048;-69
2022/11/30 01:11:10;;;;;;;23.05;13.73;;;;;;;5.48;91.90;101014.59;4920024;29;20055;-70
2022/11/30 01:13:38;;;;;;;23.92;14.35;;;;;;;5.60;91.67;101019.22;4937466;29;20066;-70
2022/11/30 01:16:12;;;;;;;18.95;12.30;;;;;;;5.62;92.01;101012.50;4937073;29;20052;-70
2022/11/30 01:18:41;;;;;;;22.15;13.30;;;;;;;5.65;91.48;101016.63;4937175;29;20048;-70
2022/11/30 01:21:12;;;;;;;21.73;12.60;;;;;;;5.68;90.36;101020.75;4937332;29;20048;-70
2022/11/30 01:23:40;;;;;;;20.23;12.52;;;;;;;5.62;91.20;101017.91;4936212;29;20059;-70
2022/11/30 01:26:09;;;;;;;20.63;12.23;;;;;;;5.67;91.06;101019.13;4937108;29;20124;-69
2022/11/30 01:28:39;;;;;;;22.13;12.48;;;;;;;5.65;91.32;101024.78;4937249;29;20056;-70
2022/11/30 01:31:09;;;;;;;22.13;11.85;;;;;;;5.65;90.49;101017.47;4936062;29;20056;-70
2022/11/30 01:33:38;;;;;;;17.35;11.75;;;;;;;5.65;90.01;101006.59;4935260;29;20376;-70
2022/11/30 01:36:10;;;;;;;18.55;11.85;;;;;;;5.75;90.28;101002.44;4936329;29;20052;-70
2022/11/30 01:38:42;;;;;;;21.75;12.40;;;;;;;5.70;91.09;101011.31;4936163;29;20059;-70
2022/11/30 01:41:13;;;;;;;18.98;11.98;;;;;;;5.83;91.11;101012.97;4935386;29;20054;-70
2022/11/30 01:44:07;;;;;;;20.25;11.85;;;;;;;5.83;90.96;101012.97;4935149;29;20051;-70
2022/11/30 01:46:39;;;;;;;20.67;11.27;;;;;;;5.91;90.47;101009.03;4913571;29;20052;-70
2022/11/30 01:49:13;;;;;;;20.20;12.55;;;;;;;5.77;90.87;101016.63;4936000;29;20059;-70
2022/11/30 01:52:04;;;;;;;17.73;11.07;;;;;;;5.71;91.39;101014.88;4936766;29;20058;-70
2022/11/30 01:54:37;;;;;;;17.13;10.65;;;;;;;5.76;90.72;100999.50;4934716;29;20059;-69
2022/11/30 01:57:30;;;;;;;19.80;11.50;;;;;;;5.77;91.09;101005.78;4934255;29;20410;-70
2022/11/30 02:00:01;;;;;;;19.60;11.77;;;;;;;5.71;91.25;101004.00;4935068;29;20055;-70
2022/11/30 02:03:12;;;;;;;20.83;11.23;;;;;;;5.76;92.54;101007.66;4935387;29;20063;-69
2022/11/30 02:05:41;;;;;;;17.90;10.40;;;;;;;5.84;92.33;101009.19;4933773;29;20059;-69
2022/11/30 02:08:10;;;;;;;19.35;11.52;;;;;;;5.79;92.01;101011.78;4944818;29;20055;-69
2022/11/30 02:10:44;;;;;;;17.98;10.75;;;;;;;5.77;91.76;101003.88;4935760;29;20487;-70
2022/11/30 02:13:36;;;;;;;20.67;11.63;;;;;;;5.77;91.71;101005.78;4935316;29;20051;-70
2022/11/30 02:16:28;;;;;;;19.33;11.95;;;;;;;5.77;92.00;101003.06;4936124;29;20048;-71
2022/11/30 02:19:05;;;;;;;18.45;11.07;;;;;;;5.86;92.41;100998.91;4935594;29;20063;-70
2022/11/30 02:21:35;;;;;;;19.35;11.48;;;;;;;5.87;91.91;100997.03;4935346;29;20055;-69
2022/11/30 02:24:09;;;;;;;19.92;10.50;;;;;;;5.98;91.98;101003.50;4950549;29;20058;-70
2022/11/30 02:26:52;;;;;;;19.83;11.63;;;;;;;5.96;91.84;101000.19;4937953;28;20513;-70
2022/11/30 02:29:42;;;;;;;20.88;11.45;;;;;;;6.01;91.44;101008.47;4934095;29;20052;-70
2022/11/30 02:32:20;;;;;;;18.60;11.73;;;;;;;5.90;91.61;101005.53;4934476;29;20071;-70
2022/11/30 02:34:49;;;;;;;17.85;11.20;;;;;;;5.94;91.63;100997.72;4933585;29;20062;-70
2022/11/30 02:37:18;;;;;;;17.92;11.02;;;;;;;5.96;91.93;101000.19;4934643;29;20054;-70
2022/11/30 02:39:46;;;;;;;19.98;11.05;;;;;;;5.92;91.69;101003.38;4935320;29;20043;-70
2022/11/30 02:42:14;;;;;;;19.35;10.65;;;;;;;5.93;92.16;101001.50;4934379;29;20063;-70
2022/11/30 02:44:46;;;;;;;16.60;10.38;;;;;;;6.07;92.64;100999.41;4935761;29;20052;-70
2022/11/30 02:47:33;;;;;;;18.83;10.63;;;;;;;6.05;91.77;100999.63;4933666;29;20047;-70
2022/11/30 02:50:10;;;;;;;18.48;11.25;;;;;;;6.09;92.05;101001.84;4933280;29;20048;-70
2022/11/30 02:52:38;;;;;;;19.17;11.35;;;;;;;6.19;91.62;100999.34;4932610;29;20047;-70
2022/11/30 02:55:09;;;;;;;18.52;10.75;;;;;;;6.11;91.20;100992.41;4934656;29;20067;-70
2022/11/30 02:57:37;;;;;;;19.25;11.00;;;;;;;6.09;91.63;101004.56;4919641;29;20056;-69
2022/11/30 03:00:09;;;;;;;20.50;10.38;;;;;;;6.16;91.94;100994.41;4931334;29;20490;-68
2022/11/30 03:02:38;;;;;;;22.38;11.15;;;;;;;6.18;91.59;100993.09;4934677;29;20054;-69
2022/11/30 03:05:07;;;;;;;20.02;11.30;;;;;;;6.20;91.56;101001.00;4935309;29;20063;-68
2022/11/30 03:07:35;;;;;;;19.95;11.98;;;;;;;6.30;91.68;100995.78;4933485;29;20052;-68
2022/11/30 03:10:05;;;;;;;21.25;10.05;;;;;;;6.24;91.69;100993.19;4918053;29;20056;-68
2022/11/30 03:12:32;;;;;;;17.70;11.32;;;;;;;6.22;91.74;100989.91;4914958;29;20052;-68
2022/11/30 03:15:00;;;;;;;18.95;11.15;;;;;;;6.22;91.72;100981.75;4928595;29;20074;-68
2022/11/30 03:17:28;;;;;;;20.27;10.82;;;;;;;6.30;92.00;100992.22;4915974;29;20048;-69
2022/11/30 03:19:56;;;;;;;17.63;10.90;;;;;;;6.22;92.08;100987.19;4916207;29;20056;-67
2022/11/30 03:22:24;;;;;;;20.63;11.20;;;;;;;6.29;92.67;100996.00;4916474;29;20063;-69
2022/11/30 03:24:52;;;;;;;19.38;10.82;;;;;;;6.22;92.84;100992.63;4927357;29;20399;-68
2022/11/30 03:27:21;;;;;;;16.33;10.57;;;;;;;6.20;92.71;101000.19;4935226;29;20128;-69
2022/11/30 03:29:49;;;;;;;21.55;11.25;;;;;;;6.25;91.84;100992.94;4935088;29;20051;-68
2022/11/30 03:32:18;;;;;;;18.73;10.77;;;;;;;6.23;92.33;100994.25;4936132;29;20056;-69
2022/11/30 03:34:46;;;;;;;18.80;10.35;;;;;;;6.26;91.90;101001.94;4932800;29;20047;-68
2022/11/30 03:37:14;;;;;;;16.48;10.27;;;;;;;6.25;91.90;100997.59;4932652;29;20056;-69
2022/11/30 03:39:42;;;;;;;20.27;11.52;;;;;;;6.38;91.64;101002.72;4933336;29;20509;-68
2022/11/30 03:42:10;;;;;;;24.17;10.13;;;;;;;6.34;91.52;101003.47;4934426;29;20055;-68
2022/11/30 03:44:38;;;;;;;17.95;11.20;;;;;;;6.36;91.27;100998.59;4926660;29;20048;-68
2022/11/30 03:47:06;;;;;;;17.35;10.40;;;;;;;6.32;91.68;100993.63;4934145;29;20050;-69
2022/11/30 03:49:34;;;;;;;17.95;10.57;;;;;;;6.32;91.90;100990.09;4933290;29;20043;-68
2022/11/30 03:52:02;;;;;;;17.45;10.32;;;;;;;6.34;92.29;100985.25;4933950;29;20059;-68
2022/11/30 03:54:30;;;;;;;17.40;10.65;;;;;;;6.38;92.10;100991.03;4934863;29;20051;-68
2022/11/30 03:56:58;;;;;;;18.38;10.52;;;;;;;6.40;91.17;101003.31;4933807;29;20419;-68
2022/11/30 03:59:26;;;;;;;20.10;11.15;;;;;;;6.49;91.89;101000.22;4934312;29;20059;-68
2022/11/30 04:01:54;;;;;;;18.95;11.55;;;;;;;6.42;91.70;100998.47;4934710;29;20054;-68
2022/11/30 04:04:22;;;;;;;17.85;10.63;;;;;;;6.50;91.50;100994.53;4934765;29;20055;-68
2022/11/30 04:06:50;;;;;;;18.77;10.95;;;;;;;6.49;91.19;100990.16;4934393;29;20490;-68
2022/11/30 04:09:18;;;;;;;20.55;11.07;;;;;;;6.56;90.65;100995.47;4932483;29;20055;-68
2022/11/30 04:11:46;;;;;;;20.00;12.07;;;;;;;6.52;91.27;100999.72;4934183;29;20505;-68
2022/11/30 04:14:14;;;;;;;21.95;10.60;;;;;;;6.48;91.69;101001.28;4933068;29;20063;-68
2022/11/30 04:16:42;;;;;;;21.35;11.80;;;;;;;6.49;91.23;100995.59;4931757;29;20486;-68
2022/11/30 04:19:10;;;;;;;20.77;11.85;;;;;;;6.66;91.00;100992.94;4933805;29;20059;-67
2022/11/30 04:21:38;;;;;;;19.63;11.23;;;;;;;6.51;90.62;100998.88;4936124;29;20055;-68
2022/11/30 04:24:06;;;;;;;19.40;10.52;;;;;;;6.56;90.95;100995.47;4937735;29;20517;-69
2022/11/30 04:26:34;;;;;;;22.58;11.75;;;;;;;6.68;89.59;101004.41;4937220;29;20048;-69
2022/11/30 04:29:02;;;;;;;22.33;11.88;;;;;;;6.70;89.44;100993.28;4937343;29;20063;-69
2022/11/30 04:31:31;;;;;;;22.15;10.93;;;;;;;6.67;89.38;101004.63;4936142;29;20519;-68
2022/11/30 04:33:59;;;;;;;20.60;11.65;;;;;;;6.73;89.26;100998.22;4937483;29;20056;-68
2022/11/30 04:36:27;;;;;;;19.58;11.10;;;;;;;6.74;89.50;100999.88;4936359;29;20505;-68
2022/11/30 04:38:56;;;;;;;21.33;12.02;;;;;;;6.71;89.22;101001.19;4937284;29;20074;-69
2022/11/30 04:41:23;;;;;;;24.73;13.02;;;;;;;6.65;89.88;101006.78;4935235;29;20044;-69
2022/11/30 04:43:51;;;;;;;22.83;11.45;;;;;;;6.62;89.33;101009.97;4937036;29;20398;-68
2022/11/30 04:46:19;;;;;;;20.20;11.18;;;;;;;6.66;89.81;101012.00;4935705;29;20052;-69
2022/11/30 04:48:47;;;;;;;20.10;11.55;;;;;;;6.62;89.06;101013.53;4937109;29;20060;-69
2022/11/30 04:51:15;;;;;;;20.55;11.18;;;;;;;6.64;88.80;101007.84;4936656;29;20062;-68
2022/11/30 04:53:43;;;;;;;18.10;11.13;;;;;;;6.67;88.96;101024.50;4939253;28;20063;-69
2022/11/30 04:56:11;;;;;;;20.63;12.38;;;;;;;6.72;88.71;101023.78;4935758;29;20384;-68
2022/11/30 04:58:39;;;;;;;17.55;10.30;;;;;;;6.66;88.83;101022.03;4936010;29;20051;-68
2022/11/30 05:01:07;;;;;;;18.20;10.38;;;;;;;6.67;89.72;101019.06;4936873;29;20075;-68
2022/11/30 05:03:35;;;;;;;21.77;12.32;;;;;;;6.65;89.28;101017.66;4937847;29;20051;-68
2022/11/30 05:06:03;;;;;;;21.15;11.85;;;;;;;6.68;89.09;101015.28;4937122;29;20406;-68
2022/11/30 05:08:31;;;;;;;20.60;12.35;;;;;;;6.59;88.38;101016.72;4937477;29;20051;-68
2022/11/30 05:10:59;;;;;;;25.02;12.68;;;;;;;6.69;87.98;101019.66;4937169;29;20388;-68
2022/11/30 05:13:27;;;;;;;21.42;12.73;;;;;;;6.65;87.73;101015.75;4937481;29;20067;-69
2022/11/30 05:15:55;;;;;;;21.95;12.05;;;;;;;6.64;87.77;101013.28;4936291;29;20059;-68
2022/11/30 05:18:23;;;;;;;22.02;12.25;;;;;;;6.76;87.15;101007.78;4937017;29;20051;-68
2022/11/30 05:20:52;;;;;;;21.00;11.35;;;;;;;6.83;86.46;101019.34;4937887;29;20059;-68
2022/11/30 05:23:20;;;;;;;21.13;12.25;;;;;;;6.78;86.33;101011.09;4937181;29;20059;-69
2022/11/30 05:25:48;;;;;;;20.50;11.55;;;;;;;6.73;87.09;101017.25;4937066;29;20380;-69
2022/11/30 05:28:16;;;;;;;20.70;11.52;;;;;;;6.68;86.38;101023.44;4937459;29;20474;-68
2022/11/30 05:30:44;;;;;;;19.40;11.45;;;;;;;6.74;86.01;101021.63;4936411;29;20048;-68
2022/11/30 05:33:13;;;;;;;22.13;11.68;;;;;;;6.78;85.53;101016.53;4935978;29;20056;-68
2022/11/30 05:35:42;;;;;;;19.75;11.68;;;;;;;6.80;86.52;101011.69;4937113;29;20075;-67
2022/11/30 05:38:10;;;;;;;19.98;11.57;;;;;;;6.84;86.06;101023.72;4935905;29;20058;-68
2022/11/30 05:40:38;;;;;;;21.67;12.13;;;;;;;6.75;86.34;101025.19;4936165;29;20409;-69
2022/11/30 05:43:07;;;;;;;23.80;12.23;;;;;;;6.83;85.97;101030.22;4936141;29;20039;-68
2022/11/30 05:45:35;;;;;;;21.00;11.95;;;;;;;6.80;86.61;101026.09;4919058;29;20047;-68
2022/11/30 05:48:03;;;;;;;23.25;12.02;;;;;;;6.86;85.04;101016.16;4936887;29;20055;-69
2022/11/30 05:50:31;;;;;;;24.05;12.43;;;;;;;7.14;85.85;101025.34;4935841;29;20051;-73
2022/11/30 05:52:59;;;;;;;21.33;11.63;;;;;;;7.17;84.47;101030.28;4936715;29;20044;-70
2022/11/30 05:55:28;;;;;;;22.73;13.18;;;;;;;7.11;84.04;101021.22;4935860;29;20039;-69
2022/11/30 05:57:56;;;;;;;24.83;13.02;;;;;;;6.99;84.13;101040.31;4936061;29;20043;-70
2022/11/30 06:00:24;;;;;;;21.85;11.80;;;;;;;7.01;84.65;101031.09;4935745;29;20402;-69
2022/11/30 06:02:56;;;;;;;23.70;11.85;;;;;;;6.93;84.75;101030.41;4935039;29;20051;-69
2022/11/30 06:05:26;;;;;;;22.48;12.57;;;;;;;6.93;85.05;101029.59;4935830;29;20059;-70
2022/11/30 06:07:54;;;;;;;26.58;12.90;;;;;;;6.90;85.84;101030.94;4936494;29;20380;-69
2022/11/30 06:10:24;;;;;;;25.58;12.00;;;;;;;6.81;84.98;101038.66;4934927;29;20052;-69
2022/11/30 06:12:52;;;;;;;23.13;12.00;;;;;;;6.79;85.47;101029.09;4935733;29;20044;-69
2022/11/30 06:15:20;;;;;;;23.63;12.32;;;;;;;6.81;86.05;101035.94;4936105;29;20056;-69
2022/11/30 06:17:48;;;;;;;22.30;11.43;;;;;;;6.81;87.16;101026.94;4936053;29;20055;-69
2022/11/30 06:20:16;;;;;;;23.63;12.63;;;;;;;6.85;87.34;101022.66;4935659;29;20047;-68
2022/11/30 06:22:45;;;;;;;22.83;12.27;;;;;;;6.80;86.72;101028.00;4934794;29;20518;-69
2022/11/30 06:25:13;;;;;;;21.55;11.43;;;;;;;6.81;86.93;101027.78;4935412;29;20040;-69
2022/11/30 06:27:42;;;;;;;21.40;12.13;;;;;;;6.84;85.99;101031.88;4919883;29;20052;-69
2022/11/30 06:30:11;;;;;;;24.33;12.48;;;;;;;6.83;86.61;101030.22;4930487;29;20040;-69
2022/11/30 06:32:38;;;;;;;24.60;12.20;;;;;;;6.81;86.80;101037.81;4935845;29;20056;-70
2022/11/30 06:35:07;;;;;;;22.40;11.73;;;;;;;6.83;86.99;101036.50;4935667;29;20787;-69
2022/11/30 06:37:35;;;;;;;21.15;11.65;;;;;;;6.82;86.83;101039.47;4935828;29;20047;-69
2022/11/30 06:40:03;;;;;;;23.00;12.18;;;;;;;6.84;87.21;101042.75;4934079;29;20082;-69
2022/11/30 06:42:34;;;;;;;22.17;11.60;;;;;;;6.82;86.68;101044.91;4935789;29;20403;-69
2022/11/30 06:45:04;;;;;;;24.35;12.32;;;;;;;6.80;86.52;101042.41;4933646;29;20043;-68
2022/11/30 06:47:33;;;;;;;27.35;13.18;;;;;;;6.82;86.90;101034.00;4934920;29;20055;-68
2022/11/30 06:50:01;;;;;;;35.78;16.73;;;;;;;6.95;85.77;101047.31;4933705;29;20056;-68
2022/11/30 06:52:30;;;;;;;35.70;14.93;;;;;;;7.03;85.03;101048.00;4935817;29;20062;-68
2022/11/30 06:54:58;;;;;;;32.45;15.23;;;;;;;7.01;85.15;101047.41;4934224;29;20056;-68
2022/11/30 06:57:28;;;;;;;27.15;14.07;;;;;;;6.98;84.64;101046.84;4933801;29;20050;-69
2022/11/30 06:59:56;;;;;;;29.10;13.63;;;;;;;6.96;84.44;101045.44;4935114;29;20090;-69
2022/11/30 07:02:24;;;;;;;29.95;14.00;;;;;;;7.01;85.17;101053.69;4935515;29;20048;-69
2022/11/30 07:04:52;;;;;;;28.58;13.90;;;;;;;7.01;84.09;101059.13;4934377;29;20055;-69
2022/11/30 07:07:20;;;;;;;22.75;12.38;;;;;;;7.08;84.63;101061.69;4935033;29;20043;-69
2022/11/30 07:09:49;;;;;;;24.77;13.75;;;;;;;7.14;84.94;101063.47;4935303;29;20055;-68
2022/11/30 07:12:17;;;;;;;25.48;11.95;;;;;;;7.12;84.80;101071.03;4934826;29;20052;-69
2022/11/30 07:14:45;;;;;;;27.63;14.20;;;;;;;7.12;84.70;101076.47;4935408;29;20391;-69
2022/11/30 07:17:13;;;;;;;24.08;12.43;;;;;;;7.10;85.66;101078.63;4937182;29;20399;-68
2022/11/30 07:19:41;;;;;;;28.65;13.98;;;;;;;7.10;85.06;101084.06;4934379;29;20058;-68
2022/11/30 07:22:09;;;;;;;28.52;13.20;;;;;;;7.12;85.67;101071.88;4934766;29;20055;-69
2022/11/30 07:27:24;;;;;;;28.20;13.10;;;;;;;7.23;85.55;101086.47;4934262;29;20044;-78
2022/11/30 07:29:52;;;;;;;24.80;13.52;;;;;;;7.26;84.22;101091.44;4933864;29;20383;-79
2022/11/30 07:32:20;;;;;;;24.92;12.00;;;;;;;7.32;84.46;101088.78;4934969;29;20047;-79
2022/11/30 07:34:48;;;;;;;29.48;13.93;;;;;;;7.33;85.41;101076.84;4935064;29;20050;-79
2022/11/30 07:37:16;;;;;;;30.88;17.27;;;;;;;7.46;85.72;101092.88;4934773;29;20062;-79
2022/11/30 07:39:44;;;;;;;35.80;20.10;;;;;;;7.43;86.02;101087.09;4934881;29;20070;-76
2022/11/30 07:42:12;;;;;;;32.10;17.05;;;;;;;7.45;84.66;101084.94;4934756;29;20052;-76
2022/11/30 07:44:42;;;;;;;29.40;14.65;;;;;;;7.46;84.87;101090.13;4932108;29;20059;-78
2022/11/30 07:47:10;;;;;;;26.17;14.02;;;;;;;7.47;85.09;101099.13;4934424;29;20405;-79
2022/11/30 07:49:38;;;;;;;21.33;12.50;;;;;;;7.56;83.49;101099.53;4933527;29;20137;-79
2022/11/30 07:52:07;;;;;;;24.30;13.85;;;;;;;7.69;81.81;101090.22;4932380;29;20059;-80
2022/11/30 07:54:35;;;;;;;28.33;14.20;;;;;;;7.75;82.78;101091.94;4934626;29;20052;-79
2022/11/30 07:57:03;;;;;;;29.73;14.73;;;;;;;7.83;82.67;101096.16;4937004;29;20055;-79
2022/11/30 07:59:30;;;;;;;27.58;13.93;;;;;;;7.88;81.53;101102.50;4937095;29;20511;-80
2022/11/30 08:01:59;;;;;;;24.55;12.80;;;;;;;7.91;80.69;101101.19;4937805;29;20063;-79
2022/11/30 08:04:27;;;;;;;26.15;12.43;;;;;;;8.01;79.29;101104.06;4938576;29;20063;-78
2022/11/30 08:06:55;;;;;;;26.67;14.45;;;;;;;8.04;79.80;101110.94;4938504;29;20040;-78
2022/11/30 08:09:23;;;;;;;27.98;13.15;;;;;;;8.07;78.49;101113.97;4937880;29;20054;-75
2022/11/30 08:11:51;;;;;;;22.23;11.80;;;;;;;8.04;78.89;101116.38;4937680;29;20047;-76
2022/11/30 08:14:19;;;;;;;26.52;14.60;;;;;;;8.07;80.23;101116.72;4937914;29;20495;-77
2022/11/30 08:16:47;;;;;;;31.13;13.77;;;;;;;8.17;79.42;101109.75;4938217;29;20486;-77
2022/11/30 08:19:15;;;;;;;26.15;13.13;;;;;;;8.30;79.85;101117.59;4937316;29;20063;-78
2022/11/30 08:21:43;;;;;;;23.60;11.60;;;;;;;8.24;78.54;101112.28;4938355;29;20047;-77
2022/11/30 08:24:12;;;;;;;22.08;11.77;;;;;;;8.21;78.42;101124.53;4937254;29;20491;-77
2022/11/30 08:26:41;;;;;;;27.95;12.77;;;;;;;8.31;79.00;101127.41;4926021;29;20495;-77
2022/11/30 08:29:10;;;;;;;25.63;13.07;;;;;;;8.39;79.12;101125.31;4935440;29;20071;-77
2022/11/30 08:31:38;;;;;;;27.63;12.25;;;;;;;8.65;79.24;101142.06;4936925;29;20071;-77
2022/11/30 08:34:09;;;;;;;21.52;12.52;;;;;;;8.54;78.47;101143.81;4936803;29;20047;-77
2022/11/30 08:36:39;;;;;;;19.70;11.43;;;;;;;8.12;79.20;101150.56;4937765;29;20082;-77
2022/11/30 08:39:08;;;;;;;22.08;10.82;;;;;;;8.06;79.87;101147.78;4937896;29;20055;-78
2022/11/30 08:41:37;;;;;;;21.73;12.15;;;;;;;8.37;78.59;101152.03;4937319;29;20059;-77
2022/11/30 08:44:06;;;;;;;18.30;10.57;;;;;;;8.30;78.20;101146.75;4937713;29;20056;-77
2022/11/30 08:46:34;;;;;;;21.65;12.07;;;;;;;8.21;78.16;101151.78;4941075;29;20055;-77
2022/11/30 08:49:22;;;;;;;22.08;10.70;;;;;;;8.41;78.90;101154.00;4938080;29;20064;-77
2022/11/30 08:51:54;;;;;;;20.35;9.95;;;;;;;8.32;77.36;101150.06;4937447;29;20418;-76
2022/11/30 08:54:44;;;;;;;22.00;10.77;;;;;;;8.63;77.27;101153.22;4916539;29;20525;-76
2022/11/30 08:57:17;;;;;;;17.25;9.90;;;;;;;8.84;76.05;101148.88;4937641;29;20056;-77
2022/11/30 08:59:46;;;;;;;21.23;11.80;;;;;;;8.75;76.35;101150.38;4937388;29;20056;-77
2022/11/30 09:02:16;;;;;;;22.98;10.88;;;;;;;9.08;75.55;101154.06;4936468;29;20435;-77
2022/11/30 09:04:47;;;;;;;19.83;10.23;;;;;;;9.20;74.21;101147.63;4937829;29;20058;-77
2022/11/30 09:07:16;;;;;;;21.52;10.25;;;;;;;9.33;74.74;101147.22;4937626;29;20384;-76
2022/11/30 09:09:44;;;;;;;18.75;10.43;;;;;;;9.41;72.31;101144.03;4933541;29;20518;-81
2022/11/30 09:12:12;;;;;;;19.88;9.77;;;;;;;9.47;71.84;101144.91;4936508;29;20414;-79
2022/11/30 09:14:40;;;;;;;23.58;10.18;;;;;;;9.68;70.75;101143.16;4936528;29;20410;-79
2022/11/30 09:17:09;;;;;;;18.60;10.48;;;;;;;9.46;70.66;101148.72;4934595;29;20403;-80
2022/11/30 09:19:37;;;;;;;17.65;9.43;;;;;;;9.86;71.34;101151.22;4937809;29;20079;-80
2022/11/30 09:22:05;;;;;;;22.48;10.55;;;;;;;9.75;69.90;101147.59;4937109;29;20062;-81
2022/11/30 09:24:33;;;;;;;18.27;9.85;;;;;;;9.91;68.59;101154.84;4935951;29;20055;-80
2022/11/30 09:27:01;;;;;;;17.33;9.35;;;;;;;10.07;67.01;101146.78;4936364;29;20044;-80
2022/11/30 09:29:29;;;;;;;17.67;8.77;;;;;;;10.13;66.88;101153.09;4926454;29;20048;-80
2022/11/30 09:31:57;;;;;;;17.15;8.32;;;;;;;10.21;68.00;101153.41;4918233;29;20052;-80
2022/11/30 09:34:25;;;;;;;16.83;9.00;;;;;;;10.21;66.18;101155.31;4917617;29;20056;-80
2022/11/30 09:36:53;;;;;;;16.83;8.65;;;;;;;10.22;67.50;101149.59;4923548;29;20502;-80
2022/11/30 09:39:21;;;;;;;17.85;8.75;;;;;;;10.41;66.82;101151.09;4936913;29;20447;-78
2022/11/30 09:42:13;;;;;;;15.40;8.35;;;;;;;10.62;63.15;101157.53;4935261;29;20083;-79
2022/11/30 09:44:59;;;;;;;15.48;7.43;;;;;;;10.78;60.38;101157.56;4918393;29;20048;-80
2022/11/30 09:47:58;;;;;;;15.73;7.65;;;;;;;10.75;59.73;101147.97;4925248;29;20062;-82
2022/11/30 09:50:30;;;;;;;11.90;6.57;;;;;;;10.60;58.34;101141.38;4934822;29;20059;-77
2022/11/30 09:53:05;;;;;;;12.05;6.60;;;;;;;10.82;60.08;101142.28;4936356;29;20519;-77
2022/11/30 09:55:38;;;;;;;11.15;6.68;;;;;;;10.82;59.70;101129.41;4936913;29;20075;-77
2022/11/30 09:58:39;;;;;;;13.52;7.18;;;;;;;10.64;57.63;101133.44;4936221;29;20058;-74
2022/11/30 10:01:18;;;;;;;14.38;5.80;;;;;;;10.38;61.15;101132.44;4936502;29;20058;-76
2022/11/30 10:03:47;;;;;;;8.68;5.82;;;;;;;10.68;60.58;101130.97;4936073;29;20410;-76
2022/11/30 10:06:27;;;;;;;10.60;5.55;;;;;;;10.81;56.91;101118.72;4935662;29;20406;-75
2022/11/30 10:09:14;;;;;;;14.07;6.32;;;;;;;10.81;57.40;101122.28;4936090;29;20056;-75
2022/11/30 10:12:23;;;;;;;12.15;5.65;;;;;;;11.20;58.34;101122.94;4927096;29;20063;-76
2022/11/30 10:14:57;;;;;;;10.27;6.07;;;;;;;11.00;59.04;101113.59;4858875;29;20045;-75
2022/11/30 10:17:41;;;;;;;8.55;5.32;;;;;;;11.18;56.44;101125.94;4911326;29;20071;-75
2022/11/30 10:20:24;;;;;;;11.40;6.18;;;;;;;10.85;55.43;101117.91;4934616;29;20407;-74
2022/11/30 10:23:07;;;;;;;11.18;5.45;;;;;;;10.99;55.92;101106.44;4927219;29;20059;-74
2022/11/30 10:25:53;;;;;;;8.30;5.60;;;;;;;11.10;55.01;101112.78;4922407;29;20055;-75
2022/11/30 10:28:47;;;;;;;9.57;5.47;;;;;;;11.19;56.54;101105.69;4917452;29;20060;-75
2022/11/30 10:31:17;;;;;;;10.00;5.53;;;;;;;11.17;53.83;101107.88;4919605;29;20111;-74
2022/11/30 10:33:46;;;;;;;18.05;8.05;;;;;;;11.27;54.89;101105.16;4921179;29;20055;-75
2022/11/30 10:36:38;;;;;;;10.82;5.43;;;;;;;11.31;54.12;101096.38;4923372;29;20055;-74
2022/11/30 10:39:18;;;;;;;9.40;5.25;;;;;;;11.67;51.27;101101.88;4916547;29;20075;-78
2022/11/30 10:41:52;;;;;;;8.65;4.95;;;;;;;11.87;50.25;101108.47;4928443;29;20051;-75
2022/11/30 10:44:29;;;;;;;8.82;4.75;;;;;;;11.66;48.72;101098.34;4928778;29;20406;-75
2022/11/30 10:47:12;;;;;;;7.43;4.57;;;;;;;11.53;47.83;101094.22;4929876;29;20051;-74
2022/11/30 10:49:51;;;;;;;7.47;4.60;;;;;;;11.63;47.20;101089.84;4928252;29;20083;-74
2022/11/30 10:52:30;;;;;;;9.15;5.00;;;;;;;11.49;48.67;101093.09;4932191;29;20059;-75
2022/11/30 10:55:00;;;;;;;10.02;5.47;;;;;;;10.95;49.51;101084.25;4917613;29;20055;-74
2022/11/30 10:57:32;;;;;;;11.25;5.10;;;;;;;11.18;49.72;101082.13;4916184;29;20056;-75
2022/11/30 11:00:04;;;;;;;7.53;4.65;;;;;;;11.34;47.36;101073.94;4930031;28;20052;-74
2022/11/30 11:02:34;;;;;;;13.02;5.40;;;;;;;11.47;48.85;101087.09;4929633;29;20426;-75
2022/11/30 11:05:14;;;;;;;7.65;4.53;;;;;;;11.42;47.81;101087.91;4935006;29;20052;-76
2022/11/30 11:07:58;;;;;;;9.13;4.75;;;;;;;11.42;47.14;101076.13;4922774;29;20066;-74
2022/11/30 11:10:39;;;;;;;6.85;3.80;;;;;;;11.34;47.29;101076.66;4934123;29;20055;-74
2022/11/30 11:13:16;;;;;;;8.13;4.22;;;;;;;11.26;47.63;101073.38;4934521;29;20060;-74
2022/11/30 11:16:11;;;;;;;6.13;4.22;;;;;;;11.49;48.16;101076.66;4932118;29;20044;-75
2022/11/30 11:18:56;;;;;;;11.68;6.53;;;;;;;11.06;47.34;101076.06;4915395;29;20056;-75
2022/11/30 11:21:24;;;;;;;6.50;3.97;;;;;;;11.23;47.73;101073.91;4928743;29;20055;-75
2022/11/30 11:23:54;;;;;;;6.97;4.10;;;;;;;10.96;48.24;101066.72;4933751;28;20051;-75
2022/11/30 11:26:28;;;;;;;6.93;4.07;;;;;;;10.56;48.05;101065.53;4915772;29;20394;-75
2022/11/30 11:29:00;;;;;;;7.00;3.90;;;;;;;10.77;47.88;101066.44;4929075;29;20052;-74
2022/11/30 11:31:42;;;;;;;7.30;4.03;;;;;;;10.73;48.94;101070.78;4933786;29;20062;-76
2022/11/30 11:34:31;;;;;;;6.78;4.13;;;;;;;11.01;47.58;101060.47;4926528;29;20063;-76
2022/11/30 11:37:22;;;;;;;6.25;4.00;;;;;;;11.01;47.86;101066.75;4920612;29;20055;-75
2022/11/30 11:40:04;;;;;;;5.68;3.67;;;;;;;10.86;47.48;101058.50;4920486;29;20055;-76